Flight Track Log - Related Links

Times and Time Zones

All times are in EDT time to prevent confusion due to time zone crossing. See the DAL2033 flight status page for this flight to view local times or setup timezone preferences in your user account.

Time Position Orientation Groundspeed Altitude Reporting Facility
EDT Latitude Longitude Course Direction KTS MPH feet Rate Location/Type
Fri 03:18:02 PM 33.6500 -84.4667 North 163 188 2,400  Level Atlanta TRACON
Fri 03:19:02 PM 33.6667 -84.5333 287° West 240 276 3,900 2,200 Climbing Atlanta TRACON
Fri 03:20:00 PM 33.8250 -84.1667 North  Level FlightAware Approximate
Fri 03:20:02 PM 33.7167 -84.5833 320° Northwest 257 296 6,800  Level Atlanta TRACON
Fri 03:21:00 PM 33.9181 -84.2514 320° Northwest  Level FlightAware Approximate
Fri 03:21:02 PM 33.8000 -84.5833 360° North 267 307 9,200  Level Atlanta TRACON
Fri 03:22:00 PM 34.0321 -84.2667 North  Level FlightAware Approximate
Fri 03:22:02 PM 33.8500 -84.5167 48° Northeast 300 345 11,000  Level Atlanta TRACON
Fri 03:22:56 PM 33.9106 -84.4367 48° Northeast 310 357 11,900 1,579 Climbing Atlanta Center
Fri 03:23:00 PM 34.1507 -84.2667 North  Level FlightAware Approximate
Fri 03:23:56 PM 34.0003 -84.3794 28° Northeast 359 413 14,000  Level Atlanta Center
Fri 03:24:56 PM 34.0881 -84.3497 16° North 356 410 15,800 1,900 Climbing Atlanta Center
Fri 03:25:56 PM 34.2031 -84.3100 16° North 389 448 17,800 2,300 Climbing Atlanta Center
Fri 03:26:56 PM 34.3136 -84.2728 16° North 411 473 20,400 2,400 Climbing Atlanta Center
Fri 03:27:56 PM 34.4181 -84.2503 10° North 398 458 22,600 1,400 Climbing Atlanta Center
Fri 03:28:56 PM 34.5289 -84.2253 11° North 399 459 23,200 1,000 Climbing Atlanta Center
Fri 03:29:56 PM 34.6456 -84.1978 11° North 416 479 24,600 1,850 Climbing Atlanta Center
Fri 03:30:56 PM 34.7708 -84.1678 11° North 416 479 26,900 1,750 Climbing Atlanta Center
Fri 03:31:56 PM 34.8858 -84.1400 11° North 416 479 28,100 1,400 Climbing Atlanta Center
Fri 03:32:56 PM 35.0006 -84.1122 11° North 416 479 29,700 1,500 Climbing Atlanta Center
Fri 03:33:56 PM 35.1133 -84.0869 10° North 411 473 31,100 1,200 Climbing Atlanta Center
Fri 03:34:56 PM 35.2239 -84.0617 11° North 411 473 32,100 950 Climbing Atlanta Center
Fri 03:35:56 PM 35.3344 -84.0336 12° North 411 473 33,000 450 Climbing Atlanta Center
Fri 03:36:56 PM 35.4428 -84.0081 11° North 411 473 33,000  Level Atlanta Center
Fri 03:37:56 PM 35.5492 -83.9800 12° North 399 459 33,000  Level Atlanta Center
Fri 03:38:56 PM 35.6556 -83.9569 10° North 392 451 33,000  Level Atlanta Center
Fri 03:39:56 PM 35.7661 -83.9314 11° North 392 451 33,000  Level Atlanta Center
Fri 03:40:56 PM 35.8747 -83.9031 12° North 392 451 33,000  Level Atlanta Center
Fri 03:41:56 PM 35.9789 -83.8489 23° Northeast 392 451 33,000  Level Atlanta Center
Fri 03:42:56 PM 36.0808 -83.7844 27° Northeast 402 463 33,000  Level Atlanta Center
Fri 03:44:28 PM 36.2400 -83.6797 28° Northeast 415 478 33,000  Level Indianapolis Center
Fri 03:45:30 PM 36.3414 -83.6139 28° Northeast 413 475 33,000  Level Indianapolis Center
Fri 03:46:32 PM 36.4431 -83.5511 26° Northeast 411 473 33,000  Level Indianapolis Center
Fri 03:47:34 PM 36.5478 -83.4844 27° Northeast 410 472 33,000  Level Indianapolis Center
Fri 03:48:37 PM 36.6464 -83.4164 29° Northeast 404 465 33,000  Level Indianapolis Center
Fri 03:49:39 PM 36.7394 -83.3272 38° Northeast 416 479 33,000  Level Indianapolis Center
Fri 03:50:41 PM 36.8328 -83.2392 37° Northeast 417 480 33,000  Level Indianapolis Center
Fri 03:51:43 PM 36.9442 -83.1358 37° Northeast 418 481 33,000  Level Indianapolis Center
Fri 03:52:45 PM 37.0408 -83.0464 36° Northeast 422 486 33,000  Level Indianapolis Center
Fri 03:53:47 PM 37.1358 -82.9558 37° Northeast 422 486 33,000  Level Indianapolis Center
Fri 03:54:49 PM 37.2283 -82.8678 37° Northeast 414 476 33,000  Level Indianapolis Center
Fri 03:55:51 PM 37.3200 -82.7806 37° Northeast 411 473 33,000  Level Indianapolis Center
Fri 03:56:53 PM 37.4128 -82.6933 37° Northeast 413 475 33,000  Level Indianapolis Center
Fri 03:57:55 PM 37.5039 -82.6069 37° Northeast 410 472 33,000  Level Indianapolis Center
Fri 03:58:57 PM 37.6089 -82.5047 38° Northeast 409 471 33,000  Level Indianapolis Center
Fri 03:59:59 PM 37.6981 -82.4158 38° Northeast 406 467 33,000  Level Indianapolis Center
Fri 04:01:01 PM 37.7883 -82.3286 37° Northeast 406 467 33,000  Level Indianapolis Center
Fri 04:02:03 PM 37.8767 -82.2400 38° Northeast 403 464 33,000  Level Indianapolis Center
Fri 04:03:05 PM 37.9689 -82.1483 38° Northeast 404 465 33,000  Level Indianapolis Center
Fri 04:04:08 PM 38.0575 -82.0600 38° Northeast 406 467 33,000  Level Indianapolis Center
Fri 04:05:10 PM 38.1475 -81.9725 37° Northeast 407 468 33,000  Level Indianapolis Center
Fri 04:06:12 PM 38.2383 -81.8806 38° Northeast 413 475 33,000  Level Indianapolis Center
Fri 04:07:14 PM 38.3456 -81.7683 39° Northeast 416 479 33,000  Level Indianapolis Center
Fri 04:08:16 PM 38.4256 -81.6578 47° Northeast 424 488 33,000  Level Indianapolis Center
Fri 04:09:18 PM 38.5042 -81.5469 48° Northeast 424 488 33,000  Level Indianapolis Center
Fri 04:10:20 PM 38.5831 -81.4347 48° Northeast 430 495 33,000  Level Indianapolis Center
Fri 04:11:22 PM 38.6772 -81.3008 48° Northeast 430 495 33,000  Level Indianapolis Center
Fri 04:12:24 PM 38.7553 -81.1883 48° Northeast 427 491 33,000  Level Indianapolis Center
Fri 04:13:26 PM 38.8347 -81.0731 48° Northeast 432 497 33,000  Level Indianapolis Center
Fri 04:14:28 PM 38.9144 -80.9561 49° Northeast 434 499 33,000  Level Indianapolis Center
Fri 04:15:30 PM 38.9953 -80.8383 49° Northeast 439 505 33,000  Level Indianapolis Center
Fri 04:16:32 PM 39.0761 -80.7239 48° Northeast 434 499 33,000  Level Indianapolis Center
Fri 04:17:35 PM 39.1764 -80.5875 46° Northeast 436 502 33,000  Level Indianapolis Center
Fri 04:18:37 PM 39.2597 -80.4725 47° Northeast 437 503 33,000  Level Indianapolis Center
Fri 04:19:38 PM 39.3419 -80.3556 48° Northeast 438 504 33,000  Level Indianapolis Center
Fri 04:20:00 PM 39.3706 -80.3200 44° Northeast 430 495 33,000  Level Cleveland Center
Fri 04:20:40 PM 39.4258 -80.2375 49° Northeast 443 510 33,000  Level Indianapolis Center
Fri 04:21:43 PM 39.5083 -80.1211 47° Northeast 440 506 33,000  Level Indianapolis Center
Fri 04:22:00 PM 39.5367 -80.0878 42° Northeast 430 495 33,000  Level Cleveland Center
Fri 04:23:00 PM 39.6172 -79.9686 49° Northeast 430 495 33,000  Level Cleveland Center
Fri 04:24:00 PM 39.7000 -79.8464 49° Northeast 436 502 33,000  Level Cleveland Center
Fri 04:25:00 PM 39.7806 -79.7267 49° Northeast 436 502 33,000  Level Cleveland Center
Fri 04:26:00 PM 39.8731 -79.5903 49° Northeast 441 507 33,000  Level Cleveland Center
Fri 04:27:00 PM 39.9533 -79.4647 50° Northeast 441 507 33,000  Level Cleveland Center
Fri 04:28:00 PM 40.0375 -79.3411 48° Northeast 441 507 33,000  Level Cleveland Center
Fri 04:29:00 PM 40.1092 -79.2286 50° Northeast 441 507 33,000  Level Cleveland Center
Fri 04:30:00 PM 40.1931 -79.1072 48° Northeast 441 507 33,000  Level Cleveland Center
Fri 04:31:00 PM 40.2747 -78.9831 49° Northeast 441 507 33,000  Level Cleveland Center
Fri 04:32:00 PM 40.3583 -78.8556 49° Northeast 441 507 33,000  Level Cleveland Center
Fri 04:33:00 PM 40.4419 -78.7281 49° Northeast 441 507 33,000  Level Cleveland Center
Fri 04:34:00 PM 40.5253 -78.6000 49° Northeast 446 513 33,000  Level Cleveland Center
Fri 04:36:16 PM 40.7264 -78.2942 49° Northeast 474 545 33,000  Level New York Center
Fri 04:37:15 PM 40.8119 -78.1636 49° Northeast 469 540 33,000  Level New York Center
Fri 04:38:17 PM 40.8969 -78.0328 49° Northeast 469 540 33,000  Level New York Center
Fri 04:39:17 PM 40.9800 -77.9014 50° Northeast 469 540 33,000  Level New York Center
Fri 04:40:14 PM 41.0619 -77.7861 47° Northeast 477 549 33,000 -51 Level New York Center
Fri 04:41:15 PM 41.1508 -77.6547 48° Northeast 477 549 32,900 -595 Descending New York Center
Fri 04:42:15 PM 41.2375 -77.5283 48° Northeast 477 549 31,800 -1,438 Descending New York Center
Fri 04:43:16 PM 41.3258 -77.3989 48° Northeast 472 543 30,000 -1,240 Descending New York Center
Fri 04:44:16 PM 41.4144 -77.2692 48° Northeast 472 543 29,300 -500 Descending New York Center
Fri 04:45:16 PM 41.5142 -77.1181 49° Northeast 482 555 29,000 -151 Descending New York Center
Fri 04:46:15 PM 41.6050 -76.9797 49° Northeast 482 555 29,000 -300 Level New York Center
Fri 04:47:16 PM 41.7033 -76.8500 45° Northeast 482 555 28,400 -1,140 Descending New York Center
Fri 04:48:16 PM 41.8267 -76.7581 29° Northeast 489 563 26,700 -1,091 Descending New York Center
Fri 04:49:50 PM 42.0214 -76.6103 29° Northeast 508 585 25,600 -623 Descending Boston Center
Fri 04:50:50 PM 42.1069 -76.4928 46° Northeast 501 577 25,100 -300 Descending Boston Center
Fri 04:51:50 PM 42.1644 -76.3394 63° Northeast 461 531 25,000 -50 Descending Boston Center
Fri 04:52:51 PM 42.2011 -76.1819 73° East 440 506 25,000  Level Boston Center
Fri 04:53:50 PM 42.2375 -76.0214 73° East 440 506 25,000  Level Boston Center
Fri 04:54:51 PM 42.2758 -75.8581 72° East 445 512 25,000  Level Boston Center
Fri 04:55:50 PM 42.3164 -75.6861 72° East 438 504 25,000  Level Boston Center
Fri 04:56:51 PM 42.3564 -75.5281 71° East 433 498 25,000 -99 Level Boston Center
Fri 04:57:51 PM 42.3914 -75.3808 72° East 438 504 24,800 -1,261 Descending Boston Center
Fri 04:58:50 PM 42.4289 -75.2250 72° East 438 504 22,500 -2,450 Descending Boston Center
Fri 04:59:51 PM 42.4658 -75.0689 72° East 433 498 19,900 -2,571 Descending Boston Center
Fri 05:00:49 PM 42.5028 -74.9100 72° East 416 479 17,400 -2,436 Descending Boston Center
Fri 05:01:32 PM 42.5258 -74.8094 73° East 399 459 15,800 -2,129 Descending Boston Center
Fri 05:01:51 PM 42.5350 -74.7619 75° East 410 472 15,200 -2,262 Descending Boston Center
Fri 05:02:33 PM 42.5556 -74.6725 73° East 384 442 13,500 -2,000 Descending Boston Center
Fri 05:02:51 PM 42.5625 -74.6389 74° East 386 444 13,200 -2,222 Descending Boston Center
Fri 05:03:27 PM 42.5850 -74.5494 71° East 372 428 11,500 -2,000 Descending Boston Center
Fri 05:03:51 PM 42.5964 -74.4933 75° East 369 425 11,200 -885 Descending Boston Center
Fri 05:04:28 PM 42.6081 -74.4233 77° East 347 399 10,600 -1,000 Descending Boston Center
Fri 05:04:51 PM 42.6047 -74.3808 96° East 349 402 10,200 -800 Descending Boston Center
Fri 05:05:28 PM 42.5808 -74.3125 115° Southeast 283 326 9,800 -1,322 Descending Boston Center
Fri 05:05:50 PM 42.5669 -74.2725 115° Southeast 295 339 8,900 -2,557 Descending Boston Center
Fri 05:06:29 PM 42.5428 -74.2125 119° Southeast 279 321 7,200 -2,000 Descending Boston Center
Fri 05:06:50 PM 42.5350 -74.1842 110° East 284 327 6,900 -1,967 Descending Boston Center
Fri 05:07:30 PM 42.5047 -74.1186 122° Southeast 281 323 5,200 -1,800 Descending Boston Center
Fri 05:07:50 PM 42.4906 -74.0872 121° Southeast 284 327 5,100 -600 Descending Boston Center
Fri 05:08:30 PM 42.4683 -74.0331 119° Southeast 269 310 4,600 -1,400 Descending Boston Center
Fri 05:08:50 PM 42.4689 -73.9967 89° East 260 299 3,700 -1,185 Descending Boston Center
Fri 05:09:51 PM 42.4931 -73.9100 69° East 233 268 3,000 -471 Descending Boston Center
Fri 05:10:32 PM 42.5125 -73.8625 61° Northeast 228 262 2,900  Descending Boston Center
Fri 05:11:03 PM 42.5356 -73.8319 44° Northeast 224 258 3,000  Climbing Boston Center
Fri 05:11:32 PM 42.5608 -73.8128 29° Northeast 200 230 2,900 -712 Descending Boston Center
Fri 05:12:02 PM 42.5797 -73.7992 28° Northeast 203 234 2,300 -1,200 Descending Boston Center

Login

Don't have an account? Register now (free) for customized features, flight alerts, and more!